South Carolina Logo

Charleston, SC Single Family Real Estate Listings

1488 Total Real Estate Listings * Click on table heading to sort
Date Posted Property Type Style Address Price Living Area Lot Size Price/Sq Ft.
2017-07-21 Single Family Traditional 1827 Mepkin Road Charleston, SC 29407 $265,000 1,940 sq. ft. 7,841 sq. ft. $137
2017-07-21 Single Family Townhouse 450 Doane Way Charleston, SC 29492 $170,000 1,314 sq. ft. 1,742 sq. ft. $129
2017-07-21 Single Family Ranch 1438 Burningtree Road Charleston, SC 29412 $645,000 2,578 sq. ft. 20,473 sq. ft. $250
2017-07-21 Single Family Condominium 1984 Folly Road Charleston, SC 29412 $235,000 1,133 sq. ft. $207
2017-07-21 Single Family Ranch; Traditional 2314 Brevard Road Charleston, SC 29414 $250,000 1,631 sq. ft. 14,810 sq. ft. $153
2017-07-21 Single Family Carriage/Kitchen House 601 Barbados Drive Charleston, SC 29492 $1,299,000 1,550 sq. ft. 43,560 sq. ft. $838
2017-07-21 Single Family Traditional 1636 Ocean Neighbors Boulevard Charleston, SC 29412 $415,000 2,137 sq. ft. 8,712 sq. ft. $194
2017-07-21 Single Family Condo Regime; Condominium 125 Pier View Street Charleston, SC 29492 $575,000 2,291 sq. ft. $251
2017-07-21 Single Family Condominium 2234 Telfair Way Charleston, SC 29412 $225,000 1,120 sq. ft. $201
2017-07-21 Single Family Townhouse 326 Kelsey Boulevard Charleston, SC 29492 $189,000 1,314 sq. ft. 1,742 sq. ft. $144
2017-07-21 Single Family Cottage 2054 Medway Road Charleston, SC 29412 $497,900 1,920 sq. ft. 6,534 sq. ft. $259
2017-07-21 Single Family Traditional 166 Evening Shade Drive Charleston, SC 29414 $289,900 1,994 sq. ft. 11,326 sq. ft. $145
2017-07-21 Single Family Ranch 1318 Ptarmigan Street Charleston, SC 29412 $292,000 1,324 sq. ft. 12,632 sq. ft. $221
2017-07-21 Single Family Cottage; Traditional 182 Corn Planters Street Charleston, SC 29492 $699,900 3,560 sq. ft. 9,583 sq. ft. $197
2017-07-21 Single Family Charleston Single 275 Coming Street Charleston, SC 29403 $350,000 1,076 sq. ft. 1,307 sq. ft. $325
2017-07-21 Single Family Townhouse 1301 Pinnacle Lane Charleston, SC 29412 $205,000 1,086 sq. ft. 3,485 sq. ft. $189
2017-07-21 Single Family Traditional 211 Hoylake Court Charleston, SC 29414 $240,000 1,450 sq. ft. 7,841 sq. ft. $166
2017-07-20 Single Family Ranch 499 Hainesworth Drive Charleston, SC 29414 $220,000 1,360 sq. ft. 7,841 sq. ft. $162
2017-07-20 Single Family Condominium 1829 Dogwood Road Charleston, SC 29414 $159,900 1,430 sq. ft. $112
2017-07-20 Single Family Craftsman; Traditional 548 Walk Easy Lane Charleston, SC 29407 $359,900 1,624 sq. ft. 5,227 sq. ft. $222
2017-07-20 Single Family Traditional 28 Jasper Street Charleston, SC 29403 $460,000 1,520 sq. ft. 2,178 sq. ft. $303
2017-07-20 Single Family Craftsman 564 Seaward Drive Charleston, SC 29412 $719,000 2,661 sq. ft. 13,504 sq. ft. $270
2017-07-20 Single Family Ranch 1463 Battalion Drive Charleston, SC 29412 $499,900 1,611 sq. ft. 22,651 sq. ft. $310
2017-07-20 Single Family Contemporary; Traditional 181 King George Street Charleston, SC 29492 $1,900,000 5,575 sq. ft. 20,038 sq. ft. $341
2017-07-20 Single Family Condominium 3 Queen Street Charleston, SC 29401 $500,000 776 sq. ft. $644
2017-07-20 Single Family Townhouse 1852 Mepkin Road Charleston, SC 29407 $115,500 1,008 sq. ft. $115
2017-07-20 Single Family Traditional 2937 Limestone Boulevard Charleston, SC 29414 $255,000 1,713 sq. ft. 10,454 sq. ft. $149
2017-07-19 Single Family Charleston Single; Traditional 1624 Wrecklers Race Lane Charleston, SC 29414 $345,000 2,582 sq. ft. 5,663 sq. ft. $134
2017-07-19 Single Family Traditional 1264 Lakefront Drive Charleston, SC 29412 $286,500 1,390 sq. ft. 6,098 sq. ft. $206
2017-07-19 Single Family Loft; Patio; Ranch 2056 Parkway Drive Charleston, SC 29412 $449,000 1,498 sq. ft. 10,890 sq. ft. $300
2017-07-19 Single Family Traditional 2967 Foxhall Road Charleston, SC 29414 $299,900 2,118 sq. ft. 12,197 sq. ft. $142
2017-07-19 Single Family Traditional 119 Alexander Street Charleston, SC 29403 $300,000 903 sq. ft. 1,307 sq. ft. $332
2017-07-19 Single Family Colonial 960 Mcelveen Street Charleston, SC 29412 $519,900 3,200 sq. ft. 8,712 sq. ft. $162
2017-07-19 Single Family Ranch 14 Brockman Drive Charleston, SC 29412 $325,000 1,575 sq. ft. 11,761 sq. ft. $206
2017-07-19 Single Family Traditional 320 Ashley Avenue Charleston, SC 29403 $335,000 680 sq. ft. 3,049 sq. ft. $493
2017-07-19 Single Family Traditional 317 Whispering Cypress Charleston, SC 29414 $356,000 2,814 sq. ft. 15,682 sq. ft. $127
2017-07-19 Single Family Condo Regime; Condominium 145 Pier View Street Charleston, SC 29492 $349,900 1,177 sq. ft. $297
2017-07-19 Single Family Condo Regime; Condominium 700 Daniel Ellis Drive Charleston, SC 29412 $189,000 1,068 sq. ft. $177
2017-07-19 Single Family Traditional 1287 Palm Cove Drive Charleston, SC 29492 $259,900 1,467 sq. ft. $177
2017-07-19 Single Family Craftsman; Traditional 60 Poplar Street Charleston, SC 29403 $789,000 2,500 sq. ft. 6,970 sq. ft. $316
2017-07-19 Single Family Ranch 763 Catawba Road Charleston, SC 29414 $324,900 1,956 sq. ft. 20,473 sq. ft. $166
2017-07-19 Single Family Ranch 1139 San Juan Avenue Charleston, SC 29407 $199,500 1,170 sq. ft. 15,246 sq. ft. $171
2017-07-19 Single Family Ranch 1049 Wellington Drive Charleston, SC 29412 $315,000 1,232 sq. ft. 9,583 sq. ft. $256
2017-07-19 Single Family Condo Regime 31 Brockman Drive Charleston, SC 29412 $217,500 1,180 sq. ft. $184
2017-07-19 Single Family Craftsman 449 Lesesne Street Charleston, SC 29492 $1,875,000 4,582 sq. ft. 15,682 sq. ft. $409
2017-07-18 Single Family Townhouse 2923 Barrington Lane Charleston, SC 29414 $200,000 2,050 sq. ft. 1,742 sq. ft. $98
2017-07-18 Single Family Townhouse 1009 Lighterman Way Charleston, SC 29412 $475,000 2,206 sq. ft. 1,742 sq. ft. $215
2017-07-18 Single Family Townhouse 1006 Lighterman Way Charleston, SC 29412 $520,000 2,206 sq. ft. 1,742 sq. ft. $236
2017-07-18 Single Family Townhouse 1008 Lighterman Way Charleston, SC 29412 $495,000 2,206 sq. ft. 1,307 sq. ft. $224
2017-07-18 Single Family Traditional 912 Misty Lake Drive Charleston, SC 29412 $459,000 1,907 sq. ft. 10,454 sq. ft. $241
2017-07-18 Single Family Condominium 130 River Landing Drive Charleston, SC 29492 $235,000 1,080 sq. ft. $218
2017-07-18 Single Family Charleston Single; Patio 4295 William E Murray Boulevard Charleston, SC 29414 $395,000 2,966 sq. ft. 5,663 sq. ft. $133
2017-07-18 Single Family Traditional 768 Whispering Marsh Drive Charleston, SC 29412 $814,000 4,401 sq. ft. 11,326 sq. ft. $185
2017-07-18 Single Family Traditional 1918 Piper Drive Charleston, SC 29407 $269,900 1,250 sq. ft. 16,988 sq. ft. $216
2017-07-18 Single Family Townhouse 503 Tayrn Drive Charleston, SC 29492 $165,000 1,260 sq. ft. 1,307 sq. ft. $131
2017-07-18 Single Family Charleston Single 42 Pitt Street Charleston, SC 29401 $745,000 1,680 sq. ft. 1,742 sq. ft. $443
2017-07-18 Single Family Ranch 1704 Tomoka Drive Charleston, SC 29407 $200,000 1,100 sq. ft. 7,405 sq. ft. $182
2017-07-18 Single Family Ranch 1473 Ashley Gardens Blvd Charleston, SC 29414 $279,900 1,747 sq. ft. 871 sq. ft. $160
2017-07-17 Single Family Townhouse 4033 Hartland Street Charleston, SC 29414 $210,000 1,216 sq. ft. 2,614 sq. ft. $173
2017-07-17 Single Family Condominium 621 Windermere Boulevard Charleston, SC 29407 $329,000 1,576 sq. ft. $209
2017-07-17 Single Family Condominium 507 Stinson Drive Charleston, SC 29407 $120,000 958 sq. ft. $125
2017-07-17 Single Family Traditional 1864 Bairds Cove Charleston, SC 29414 $295,000 2,207 sq. ft. 9,148 sq. ft. $134
2017-07-17 Single Family Townhouse 767 Certificate Court Charleston, SC 29414 $180,000 1,056 sq. ft. 871 sq. ft. $170
2017-07-17 Single Family Traditional 1841 Alice Drive Charleston, SC 29407 $399,000 1,952 sq. ft. 10,019 sq. ft. $204
2017-07-17 Single Family Traditional 1724 Sandcroft Drive Charleston, SC 29407 $415,000 2,248 sq. ft. 9,583 sq. ft. $185
2017-07-17 Single Family Charleston Single 1642 Wading Heron Road Charleston, SC 29412 $329,852 1,344 sq. ft. 6,098 sq. ft. $245
2017-07-17 Single Family Traditional 1623 Robinhood Drive Charleston, SC 29407 $224,900 1,254 sq. ft. 13,068 sq. ft. $179
2017-07-17 Single Family Ranch 802 Hoss Road Charleston, SC 29414 $189,000 1,248 sq. ft. 8,276 sq. ft. $151
2017-07-17 Single Family Traditional 1034 Blakeway Street Charleston, SC 29492 $615,000 2,714 sq. ft. 7,405 sq. ft. $227
2017-07-17 Single Family Traditional 449 Wampler Drive Charleston, SC 29412 $1,280,000 4,043 sq. ft. 14,810 sq. ft. $317
2017-07-17 Single Family Condominium 501 Deerfield Drive Charleston, SC 29414 $308,750 1,845 sq. ft. $167
2017-07-17 Single Family Condominium 502 Deerfield Drive Charleston, SC 29414 $293,550 1,785 sq. ft. $164
2017-07-17 Single Family Condominium 503 Deerfield Drive Charleston, SC 29414 $318,250 1,975 sq. ft. $161
2017-07-17 Single Family Cottage 415 Limbaker Charleston, SC 29412 $299,000 1,150 sq. ft. 9,148 sq. ft. $260
2017-07-17 Single Family Traditional 2413 Pristine View Road Charleston, SC 29414 $475,000 4,106 sq. ft. 18,731 sq. ft. $116
2017-07-16 Single Family Traditional 116 Burnham Street Charleston, SC 29492 $579,500 2,579 sq. ft. 13,068 sq. ft. $225
2017-07-16 Single Family Traditional 4312 Club Course Drive Charleston, SC 29420 $500,000 3,466 sq. ft. 14,375 sq. ft. $144
2017-07-16 Single Family Charleston Single 1480 Eutaw Battalion Drive Charleston, SC 29412 $534,900 1,990 sq. ft. 9,148 sq. ft. $269
2017-07-16 Single Family Ranch 1464 Harbor Mist Court Charleston, SC 29492 $289,999 1,540 sq. ft. 3,485 sq. ft. $188
2017-07-16 Single Family Traditional 241 Gordon Street Charleston, SC 29403 $425,000 2,000 sq. ft. $212
2017-07-15 Single Family Traditional 128 San Souci Street Charleston, SC 29403 $524,900 1,436 sq. ft. 4,792 sq. ft. $366
2017-07-15 Single Family Ranch 2134 Hunter Creek Drive Charleston, SC 29414 $225,000 1,757 sq. ft. 13,504 sq. ft. $128
2017-07-15 Single Family Charleston Single 1511 Bur Clare Drive Charleston, SC 29412 $305,000 1,371 sq. ft. 9,148 sq. ft. $222
2017-07-15 Single Family Ranch 2772 Forest Dew Court Charleston, SC 29414 $205,000 1,134 sq. ft. 4,792 sq. ft. $181
2017-07-15 Single Family Condominium 2362 Parsonage Road Charleston, SC 29414 $133,900 960 sq. ft. $139
2017-07-15 Single Family Condo Regime 2329 E Tall Sail Drive Charleston, SC 29414 $229,900 1,352 sq. ft. $170
2017-07-14 Single Family Traditional 1650 Bull Creek Lane Charleston, SC 29414 $1,300,000 3,508 sq. ft. 14,810 sq. ft. $371
2017-07-14 Single Family Condo Regime; Condominium 204 Sans Souci Street Charleston, SC 29403 $255,000 1,260 sq. ft. $202
2017-07-14 Single Family Traditional 960 Mcelveen Street Charleston, SC 29412 $519,000 3,126 sq. ft. 8,712 sq. ft. $166
2017-07-14 Single Family Traditional 2914 Limestone Boulevard Charleston, SC 29414 $275,000 1,846 sq. ft. 12,632 sq. ft. $149
2017-07-14 Single Family Traditional 2080 Bishop Drive Charleston, SC 29414 $263,947 1,474 sq. ft. 12,197 sq. ft. $179
2017-07-14 Single Family Traditional 1619 Jessamine Road Charleston, SC 29407 $339,000 1,756 sq. ft. 6,098 sq. ft. $193
2017-07-14 Single Family Contemporary; Traditional 315 Anadale Court Charleston, SC 29418 $565,000 2,414 sq. ft. 33,541 sq. ft. $234
2017-07-14 Single Family Ranch 1534 Salisbury St Charleston, SC 29407 $370,000 2,400 sq. ft. 15,246 sq. ft. $154
2017-07-14 Single Family Cottage 14 Lyttleton Avenue Charleston, SC 29407 $369,500 973 sq. ft. 6,534 sq. ft. $380
2017-07-14 Single Family Condominium 498 Albemarle Road Charleston, SC 29407 $314,000 1,075 sq. ft. $292
2017-07-13 Single Family Ranch 825 Stiles Drive Charleston, SC 29412 $369,900 1,771 sq. ft. 10,890 sq. ft. $209
2017-07-13 Single Family Townhouse 28 Maplecrest Drive Charleston, SC 29412 $199,900 1,119 sq. ft. 1,742 sq. ft. $179
2017-07-13 Single Family Traditional 12 Palmetto Park Road Charleston, SC 29407 $225,000 1,200 sq. ft. 6,098 sq. ft. $188
2017-07-13 Single Family Charleston Single 2393 Eagle Creek Drive Charleston, SC 29414 $307,500 1,620 sq. ft. 6,534 sq. ft. $190
2017-07-13 Single Family Traditional 170 Mary Ellen Drive Charleston, SC 29403 $1,075,000 3,650 sq. ft. 4,792 sq. ft. $295
2017-07-13 Single Family Condominium 116 Howard Mary Drive Charleston, SC 29412 $369,000 1,684 sq. ft. $219
2017-07-13 Single Family Ranch 1329 Garrison Street Charleston, SC 29412 $267,900 1,073 sq. ft. 15,682 sq. ft. $250
2017-07-13 Single Family Traditional 461 Nelliefield Trail Charleston, SC 29492 $324,900 1,822 sq. ft. 5,227 sq. ft. $178
2017-07-13 Single Family Charleston Single 71 Pitt Street Charleston, SC 29403 $1,550,000 4,186 sq. ft. 11,761 sq. ft. $370
2017-07-13 Single Family Traditional 37 Wedgepark Road Charleston, SC 29407 $360,000 1,463 sq. ft. 8,276 sq. ft. $246
2017-07-13 Single Family Ranch 1459 Salisbury Street Charleston, SC 29407 $270,000 1,279 sq. ft. 10,890 sq. ft. $211
2017-07-13 Single Family Ranch 412 Cabrill Drive Charleston, SC 29414 $300,000 2,054 sq. ft. 8,276 sq. ft. $146
2017-07-13 Single Family Ranch 940 Julia Street Charleston, SC 29412 $449,000 2,497 sq. ft. 20,038 sq. ft. $180
2017-07-13 Single Family Ranch 1505 Birthright Street Charleston, SC 29407 $249,000 1,218 sq. ft. 9,583 sq. ft. $204
2017-07-13 Single Family Ranch 5 Homel Place Charleston, SC 29403 $315,000 1,259 sq. ft. 3,049 sq. ft. $250
2017-07-13 Single Family Traditional 109 Walnut Creek Road Charleston, SC 29414 $307,000 1,770 sq. ft. 7,405 sq. ft. $173
2017-07-13 Single Family Charleston Single 2919 Rutherford Way Charleston, SC 29414 $399,990 2,734 sq. ft. 6,098 sq. ft. $146
2017-07-13 Single Family Traditional 830 Burnett Drive Charleston, SC 29412 $379,000 1,642 sq. ft. 12,632 sq. ft. $231
2017-07-13 Single Family Townhouse 1809 Heldsberg Drive Charleston, SC 29414 $235,000 1,678 sq. ft. 2,178 sq. ft. $140
2017-07-13 Single Family Condominium 79 Society Street Charleston, SC 29401 $725,000 1,066 sq. ft. $680
2017-07-13 Single Family Ranch; Traditional 1821 Chickasaw Drive Charleston, SC 29414 $305,000 1,870 sq. ft. 7,405 sq. ft. $163
2017-07-13 Single Family Traditional 678 Bunkhouse Drive Charleston, SC 29414 $225,000 1,300 sq. ft. 7,841 sq. ft. $173
2017-07-13 Single Family Condo Regime; Condominium; Duplex 1536 Inland Ave. C Charleston, SC 29412 $147,500 870 sq. ft. $170
2017-07-13 Single Family Condominium 29 Battery Charleston, SC 29401 $4,150,000 3,800 sq. ft. $1,092
2017-07-13 Single Family Townhouse 1721 Boone Hall Drive Charleston, SC 29407 $118,000 1,008 sq. ft. 871 sq. ft. $117
2017-07-13 Single Family Ranch 1878 Cestus Lane Charleston, SC 29414 $300,000 1,622 sq. ft. 20,909 sq. ft. $185
2017-07-12 Single Family Craftsman; Traditional 814 Rutledge Avenue Charleston, SC 29403 $595,000 2,486 sq. ft. 6,098 sq. ft. $239
2017-07-12 Single Family Contemporary 2363 Treescape Drive Charleston, SC 29414 $218,000 1,519 sq. ft. 14,810 sq. ft. $144
2017-07-12 Single Family Cottage; Craftsman; Traditional 4225 William E Murray Boulevard Charleston, SC 29414 $370,000 2,176 sq. ft. 6,534 sq. ft. $170
2017-07-12 Single Family Charleston Single 1528 Gator Track Charleston, SC 29414 $384,900 2,701 sq. ft. 14,810 sq. ft. $142
2017-07-12 Single Family Cottage 2115 Wappoo Drive Charleston, SC 29412 $324,900 950 sq. ft. 6,534 sq. ft. $342
2017-07-12 Single Family Traditional 18 Lafar Street Charleston, SC 29492 $2,300,000 6,874 sq. ft. 31,363 sq. ft. $335
2017-07-12 Single Family Charleston Single; Traditional 1948 Gracewood Drive Charleston, SC 29414 $459,000 2,708 sq. ft. 7,405 sq. ft. $170
2017-07-12 Single Family Traditional 1417 Peach Blossom Lane Charleston, SC 29492 $619,000 3,350 sq. ft. 20,473 sq. ft. $185
2017-07-12 Single Family Traditional 1110 Breezeway Circle Charleston, SC 29492 $287,900 1,665 sq. ft. $173
2017-07-12 Single Family Charleston Single 10 Porters Court Charleston, SC 29403 $545,000 1,264 sq. ft. 1,307 sq. ft. $431
2017-07-12 Single Family Traditional 252 Delahow Street Charleston, SC 29492 $1,289,900 4,618 sq. ft. 10,019 sq. ft. $279
2017-07-12 Single Family Traditional 966 Orange Grove Road Charleston, SC 29407 $400,000 2,302 sq. ft. 11,326 sq. ft. $174
2017-07-12 Single Family Ranch 1549 Avalon Circle Charleston, SC 29407 $225,000 1,132 sq. ft. 17,424 sq. ft. $199
2017-07-12 Single Family Townhouse 8 Duffers Court Charleston, SC 29414 $187,320 1,156 sq. ft. 2,178 sq. ft. $162
2017-07-12 Single Family Condominium 51 Smith Street Charleston, SC 29401 $749,000 2,120 sq. ft. $353
2017-07-12 Single Family Traditional 8 Old Summer House Road Charleston, SC 29412 $1,395,000 3,644 sq. ft. 8,276 sq. ft. $383
2017-07-12 Single Family Townhouse 2 Smith Street Charleston, SC 29401 $595,000 1,344 sq. ft. 1,307 sq. ft. $443
2017-07-12 Single Family Charleston Single; Traditional 2893 Rutherford Way Charleston, SC 29414 $364,900 2,446 sq. ft. 9,583 sq. ft. $149
2017-07-11 Single Family Traditional 1666 Old Military Road Charleston, SC 29412 $460,000 2,120 sq. ft. 23,087 sq. ft. $217
2017-07-11 Single Family Ranch 3270 Middlebury Lane Charleston, SC 29414 $249,900 1,277 sq. ft. 871 sq. ft. $196
2017-07-11 Single Family Ranch 1921 Campion Hall Road Charleston, SC 29407 $300,000 1,500 sq. ft. 11,761 sq. ft. $200
2017-07-11 Single Family Traditional 68 Fort Royal Avenue Charleston, SC 29407 $649,000 2,862 sq. ft. 16,553 sq. ft. $227
2017-07-11 Single Family Traditional 1784 Banbury Road Charleston, SC 29414 $275,000 2,146 sq. ft. 11,761 sq. ft. $128
2017-07-11 Single Family Traditional 607 1st Mate Court Charleston, SC 29412 $515,000 2,271 sq. ft. 9,148 sq. ft. $227
2017-07-11 Single Family Traditional 2379 Parkstone Drive Charleston, SC 29414 $250,000 1,563 sq. ft. 8,712 sq. ft. $160
2017-07-11 Single Family Condo Regime; Condominium 100 Bucksley Lane Charleston, SC 29492 $146,000 759 sq. ft. $192
2017-07-11 Single Family Craftsman 794 Rutledge Avenue Charleston, SC 29403 $370,000 1,600 sq. ft. 5,663 sq. ft. $231
2017-07-11 Single Family Ranch 1440 Orange Grove Road Charleston, SC 29407 $299,000 1,819 sq. ft. 14,810 sq. ft. $164
2017-07-11 Single Family Townhouse 1421 Dove Run Drive Charleston, SC 29412 $139,000 1,028 sq. ft. $135
2017-07-11 Single Family Ranch 1417 Birthright Street Charleston, SC 29407 $286,500 1,801 sq. ft. 9,583 sq. ft. $159
2017-07-11 Single Family Condo Regime 10 Logan Charleston, SC 29401 $749,000 1,193 sq. ft. $628
2017-07-11 Single Family Ranch; Traditional 1607 Jessamine Road Charleston, SC 29407 $240,000 1,180 sq. ft. 10,890 sq. ft. $203
2017-07-11 Single Family Traditional 2401 River Park Way Charleston, SC 29414 $284,000 1,700 sq. ft. 9,583 sq. ft. $167
2017-07-11 Single Family Traditional 3 Dereef Court Charleston, SC 29403 $820,000 1,934 sq. ft. 1,742 sq. ft. $424
2017-07-11 Single Family Traditional 197 Corn Planters Street Charleston, SC 29492 $699,950 3,604 sq. ft. 11,761 sq. ft. $194
2017-07-11 Single Family Traditional 1115 Pemberton Farms Lane Charleston, SC 29412 $349,900 2,155 sq. ft. 8,276 sq. ft. $162
2017-07-11 Single Family Ranch 819 Colony Drive Charleston, SC 29407 $649,000 2,750 sq. ft. 16,553 sq. ft. $236
2017-07-11 Single Family Ranch 13 Briarcliff Drive Charleston, SC 29407 $289,000 1,300 sq. ft. 7,841 sq. ft. $222
2017-07-11 Single Family Ranch; Traditional 745 Clipper Street Charleston, SC 29412 $349,000 1,887 sq. ft. 18,295 sq. ft. $185
2017-07-11 Single Family Ranch; Traditional 222 Grey Owl Way Charleston, SC 29414 $299,000 2,453 sq. ft. 6,534 sq. ft. $122
2017-07-11 Single Family Townhouse 1591 Bluewater Way Charleston, SC 29414 $229,900 1,816 sq. ft. 1,742 sq. ft. $127
2017-07-10 Single Family Traditional 2206 Terrabrook Lane Charleston, SC 29412 $495,000 2,955 sq. ft. 8,712 sq. ft. $168
2017-07-10 Single Family Charleston Single 1950 Culver Avenue Charleston, SC 29407 $236,000 1,500 sq. ft. 9,148 sq. ft. $157
2017-07-10 Single Family Traditional 653 Barbados Drive Charleston, SC 29492 $1,374,000 6,271 sq. ft. 55,757 sq. ft. $219
2017-07-10 Single Family Cape Cod 1953 Ferguson Road Charleston, SC 29412 $65,000 1,014 sq. ft. 12,197 sq. ft. $64
2017-07-10 Single Family Colonial 822 Whispering Marsh Drive Charleston, SC 29412 $679,000 2,640 sq. ft. 24,829 sq. ft. $257
2017-07-10 Single Family Ranch 5 Colleton Drive Charleston, SC 29407 $365,000 1,054 sq. ft. 10,019 sq. ft. $346
2017-07-10 Single Family Ranch 1232 Capers Road Charleston, SC 29412 $350,000 1,689 sq. ft. 12,197 sq. ft. $207
2017-07-10 Single Family Traditional 134 Chadwick Drive Charleston, SC 29407 $599,000 2,032 sq. ft. 16,117 sq. ft. $295
2017-07-10 Single Family Ranch 1336 Edgewater Drive Charleston, SC 29407 $649,900 2,200 sq. ft. 24,829 sq. ft. $295
2017-07-10 Single Family Traditional 2 Battery Charleston, SC 29401 $2,995,000 4,674 sq. ft. 2,614 sq. ft. $641
2017-07-10 Single Family Ranch; Traditional 2309 Pristine View Road Charleston, SC 29414 $469,900 3,083 sq. ft. 10,890 sq. ft. $152
2017-07-10 Single Family Traditional 2403 Pristine View Road Charleston, SC 29414 $349,900 3,139 sq. ft. 12,197 sq. ft. $111
2017-07-10 Single Family Condominium 2347 Tall Sail Drive Charleston, SC 29414 $195,000 1,020 sq. ft. $191
2017-07-10 Single Family Ranch 1051 Kipling Road Charleston, SC 29407 $269,000 1,609 sq. ft. 10,019 sq. ft. $167
2017-07-10 Single Family Ranch 343 Cessna Avenue Charleston, SC 29407 $169,000 1,304 sq. ft. 13,504 sq. ft. $130
2017-07-10 Single Family Condominium 45 Sycamore Avenue Charleston, SC 29407 $224,900 1,221 sq. ft. $184
2017-07-09 Single Family Ranch; Traditional 17 Byrd Garden Road Charleston, SC 29414 $285,000 1,958 sq. ft. 6,970 sq. ft. $146
2017-07-09 Single Family Craftsman 416 Woodland Shores Road Charleston, SC 29412 $265,000 1,704 sq. ft. 21,344 sq. ft. $156
2017-07-09 Single Family Ranch; Traditional 2046 Green Park Avenue Charleston, SC 29414 $215,000 1,188 sq. ft. 12,632 sq. ft. $181
2017-07-09 Single Family Ranch 1016 Foxcroft Road Charleston, SC 29412 $350,000 1,765 sq. ft. 20,473 sq. ft. $198
2017-07-09 Single Family Traditional 78 Halsey Boulevard Charleston, SC 29401 $2,400,000 3,114 sq. ft. 8,276 sq. ft. $771
2017-07-09 Single Family Ranch; Traditional 2633 Elissa Drive Charleston, SC 29414 $300,000 1,600 sq. ft. 11,326 sq. ft. $188
2017-07-08 Single Family Craftsman 564 Barbados Drive Charleston, SC 29492 $1,329,900 5,010 sq. ft. 37,026 sq. ft. $265
2017-07-08 Single Family Condominium 192 Bay Street Charleston, SC 29401 $729,000 1,051 sq. ft. 4,356 sq. ft. $694
2017-07-08 Single Family Traditional 490 Planters Trace Drive Charleston, SC 29412 $398,500 2,685 sq. ft. 7,405 sq. ft. $148
2017-07-08 Single Family Ranch 2324 Wofford Road Charleston, SC 29414 $275,000 1,768 sq. ft. 11,326 sq. ft. $156
2017-07-08 Single Family Townhouse 130 River Landing Drive Charleston, SC 29492 $294,900 1,291 sq. ft. $228
2017-07-08 Single Family Condominium 2362 Parsonage Road Charleston, SC 29414 $133,900 960 sq. ft. $139
2017-07-08 Single Family Traditional 2052 Country Lake Court Charleston, SC 29414 $279,700 2,305 sq. ft. 13,939 sq. ft. $121
2017-07-08 Single Family Charleston Single 3253 Moonlight Drive Charleston, SC 29414 $385,000 2,560 sq. ft. 5,227 sq. ft. $150
2017-07-08 Single Family Traditional 241 Gazania Way Charleston, SC 29414 $378,000 2,786 sq. ft. 12,632 sq. ft. $136
2017-07-08 Single Family Ranch 511 Ivy Circle Charleston, SC 29414 $234,500 1,463 sq. ft. 7,841 sq. ft. $160
2017-07-07 Single Family Cottage 1515 Mitchell Wharf Street Charleston, SC 29492 $529,900 1,538 sq. ft. $345
2017-07-07 Single Family Townhouse 150 Dorothy Drive Charleston, SC 29414 $234,900 1,692 sq. ft. 2,614 sq. ft. $139
2017-07-07 Single Family Traditional 2228 Arthur Gaillard Lane Charleston, SC 29414 $399,000 2,500 sq. ft. 12,197 sq. ft. $160
2017-07-07 Single Family Duplex 220 Xavier Street Charleston, SC 29414 $206,000 1,638 sq. ft. 4,792 sq. ft. $126
2017-07-07 Single Family Traditional 46 Hillcreek Boulevard Charleston, SC 29412 $320,000 1,485 sq. ft. 13,504 sq. ft. $215
2017-07-07 Single Family Townhouse 1413 Nautical Chart Charleston, SC 29414 $247,000 1,622 sq. ft. 2,178 sq. ft. $152
2017-07-07 Single Family Traditional 3147 Mulan Lane Charleston, SC 29414 $299,900 2,014 sq. ft. 4,792 sq. ft. $149
2017-07-07 Single Family Ranch 492 Wimbledon Drive Charleston, SC 29412 $587,500 2,533 sq. ft. 20,909 sq. ft. $232
2017-07-07 Single Family Victorian 120 Alexander Street Charleston, SC 29403 $1,175,000 3,062 sq. ft. 4,792 sq. ft. $384
2017-07-07 Single Family Traditional 38 Anita Drive Charleston, SC 29407 $289,900 1,072 sq. ft. 20,473 sq. ft. $270
2017-07-07 Single Family Ranch 1861 Stonehedge Road Charleston, SC 29407 $350,000 2,433 sq. ft. 10,019 sq. ft. $144
2017-07-07 Single Family Traditional 1301 Sumner Avenue Charleston, SC 29406 $215,000 3,083 sq. ft. 13,068 sq. ft. $70
2017-07-07 Single Family Condo Regime; Condominium 330 Concord Street Charleston, SC 29401 $1,100,000 2,120 sq. ft. $519
2017-07-07 Single Family Condo Regime; Condominium 1025 Riverland Woods Place Charleston, SC 29412 $185,000 1,058 sq. ft. $175
2017-07-07 Single Family Traditional 970 Carmel Drive Charleston, SC 29412 $550,000 3,152 sq. ft. 17,860 sq. ft. $174
2017-07-07 Single Family Charleston Single 1891 Beechwood Road Charleston, SC 29414 $294,000 1,868 sq. ft. 6,534 sq. ft. $157
2017-07-06 Single Family Cottage; Craftsman; Ranch 105 Hickory Street Charleston, SC 29407 $439,000 1,486 sq. ft. 6,098 sq. ft. $295
2017-07-06 Single Family Ranch 1307 Fort Lamar Road Charleston, SC 29412 $269,900 1,222 sq. ft. 16,117 sq. ft. $221
2017-07-06 Single Family Condominium 1755 Central Park Road Charleston, SC 29412 $143,000 709 sq. ft. $202
2017-07-06 Single Family Condominium 45 Sycamore Avenue Charleston, SC 29407 $145,000 750 sq. ft. $193
2017-07-06 Single Family Condominium 2244 Ashley Crossing Drive Charleston, SC 29414 $193,000 1,321 sq. ft. $146
2017-07-06 Single Family Charleston Single; Craftsman 119 Mary Ellen Drive Charleston, SC 29403 $763,200 2,544 sq. ft. 5,227 sq. ft. $300
2017-07-06 Single Family Traditional 2083 Shore Drive Charleston, SC 29407 $385,000 2,353 sq. ft. 14,375 sq. ft. $164
2017-07-06 Single Family Contemporary; Traditional 375 Huger Street Charleston, SC 29403 $699,000 1,850 sq. ft. $378
2017-07-06 Single Family Condo Regime 2162 Bees Ferry Road Charleston, SC 29414 $99,000 850 sq. ft. $116
2017-07-06 Single Family Traditional 625 White Chapel Circle Charleston, SC 29412 $579,000 3,100 sq. ft. $187
2017-07-06 Single Family Ranch; Traditional 2404 Menola Avenue Charleston, SC 29414 $250,000 1,973 sq. ft. 14,810 sq. ft. $127
2017-07-06 Single Family Townhouse 810 Rue Drive Charleston, SC 29414 $199,000 1,258 sq. ft. 1,742 sq. ft. $158
2017-07-06 Single Family Condo Regime 4 Beaufain Street Charleston, SC 29401 $675,000 1,014 sq. ft. $666
2017-07-06 Single Family Condo Regime; Condominium 1755 Central Park Road Charleston, SC 29412 $155,000 709 sq. ft. $219
2017-07-06 Single Family Contemporary 2 Solomon Court Charleston, SC 29414 $219,000 1,536 sq. ft. 5,663 sq. ft. $143
2017-07-06 Single Family Ranch 883 Melrose Drive Charleston, SC 29414 $369,000 2,957 sq. ft. 11,761 sq. ft. $125
2017-07-06 Single Family Contemporary 457 Lesesne Street Charleston, SC 29492 $1,899,000 4,651 sq. ft. 17,860 sq. ft. $408
2017-07-06 Single Family Townhouse 4154 Perrine Street Charleston, SC 29414 $209,900 1,606 sq. ft. 2,614 sq. ft. $131
2017-07-06 Single Family Townhouse 1838 Heldsberg Drive Charleston, SC 29414 $232,000 1,645 sq. ft. 3,485 sq. ft. $141
2017-07-05 Single Family Townhouse 1203 Circle Oaks Drive Charleston, SC 29492 $274,900 2,439 sq. ft. 3,049 sq. ft. $113
2017-07-05 Single Family Traditional 505 White Chapel Circle Charleston, SC 29412 $564,900 2,654 sq. ft. 10,019 sq. ft. $213
2017-07-05 Single Family Charleston Single 935 Misty Lake Drive Charleston, SC 29412 $439,000 2,035 sq. ft. 10,019 sq. ft. $216
2017-07-05 Single Family Townhouse 2515 Rutherford Way Charleston, SC 29414 $340,000 2,176 sq. ft. 4,356 sq. ft. $156
2017-07-05 Single Family Traditional 668 Port Circle Charleston, SC 29412 $374,800 2,104 sq. ft. 13,504 sq. ft. $178
2017-07-05 Single Family Townhouse 17 Rutledge Avenue Charleston, SC 29401 $899,000 1,836 sq. ft. 3,485 sq. ft. $490
2017-07-05 Single Family Charleston Single 96 Queen Street Charleston, SC 29401 $998,950 1,876 sq. ft. $532
2017-07-05 Single Family Townhouse 292 Fleming Road Charleston, SC 29412 $124,000 1,126 sq. ft. 1,742 sq. ft. $110
2017-07-05 Single Family Ranch 1074 Secessionville Road Charleston, SC 29412 $235,000 1,300 sq. ft. 5,663 sq. ft. $181
2017-07-05 Single Family Condominium 1402 Camp Road Charleston, SC 29412 $99,000 959 sq. ft. $103
2017-07-05 Single Family Cottage 209 Fishburne Street Charleston, SC 29403 $250,000 944 sq. ft. 2,614 sq. ft. $265
2017-07-05 Single Family Traditional 2418 Settlers Street Charleston, SC 29492 $679,700 3,001 sq. ft. 6,098 sq. ft. $226
2017-07-05 Single Family Ranch 1886 Christian Road Charleston, SC 29407 $235,000 1,137 sq. ft. 10,019 sq. ft. $207
2017-07-05 Single Family Traditional 515 Parkwood Estates Drive Charleston, SC 29407 $675,000 3,300 sq. ft. 19,602 sq. ft. $205
2017-07-05 Single Family Condominium 2244 Ashley Crossing Drive Charleston, SC 29414 $197,900 1,321 sq. ft. $150
2017-07-05 Single Family Traditional 262 Nelliefield Creek Drive Charleston, SC 29492 $349,900 2,314 sq. ft. $151
2017-07-05 Single Family Traditional 1357 Ashley Gardens Boulevard Charleston, SC 29414 $269,900 1,742 sq. ft. 10,454 sq. ft. $155
2017-07-05 Single Family Traditional 1084 Ripley Drive Charleston, SC 29412 $500,000 2,200 sq. ft. 17,424 sq. ft. $227
2017-07-03 Single Family Ranch; Traditional 422 Planters Trace Drive Charleston, SC 29412 $324,900 1,533 sq. ft. 7,405 sq. ft. $212
2017-07-03 Single Family Ranch 1373 Parkshore Drive Charleston, SC 29407 $425,000 2,221 sq. ft. 11,761 sq. ft. $191
2017-07-03 Single Family Charleston Single 1407 Bimini Drive Charleston, SC 29414 $359,900 2,520 sq. ft. 6,534 sq. ft. $143
2017-07-03 Single Family Condominium; Flat 34 Montagu Street Charleston, SC 29401 $582,000 1,202 sq. ft. $484
2017-07-03 Single Family Townhouse 82 Devereaux Avenue Charleston, SC 29403 $499,000 1,716 sq. ft. 2,614 sq. ft. $291
2017-07-03 Single Family Condominium 348 King Street Charleston, SC 29401 $449,900 762 sq. ft. $590
2017-07-03 Single Family Condominium 260 Seven Farms Drive Charleston, SC 29492 $260,000 1,228 sq. ft. $212
2017-07-03 Single Family Traditional 1575 Pinebark Lane Charleston, SC 29407 $425,000 2,896 sq. ft. 29,185 sq. ft. $147
2017-07-03 Single Family Charleston Single 4307 William E Murray Boulevard Charleston, SC 29414 $359,000 2,319 sq. ft. 5,663 sq. ft. $155
2017-07-02 Single Family Craftsman 1901 Central Park Charleston, SC 29412 $495,900 1,850 sq. ft. 21,780 sq. ft. $268
2017-07-02 Single Family Traditional 1272 Lakefront Drive Charleston, SC 29412 $299,000 1,345 sq. ft. 10,890 sq. ft. $222
2017-07-02 Single Family Condo Regime; Condominium 1 Vendue Range Charleston, SC 29401 $900,000 1,200 sq. ft. 43,560 sq. ft. $750
2017-07-02 Single Family Contemporary; Traditional 1799 Old Military Road Charleston, SC 29412 $499,900 3,860 sq. ft. 30,056 sq. ft. $130
2017-07-01 Single Family Ranch 1326 Battery Stevens Court Charleston, SC 29412 $275,000 1,316 sq. ft. 6,098 sq. ft. $209
2017-07-01 Single Family Townhouse 708 Certificate Court Charleston, SC 29414 $255,000 1,834 sq. ft. 1,307 sq. ft. $139
2017-07-01 Single Family Traditional 1009 Clearspring Drive Charleston, SC 29412 $380,000 1,878 sq. ft. 7,841 sq. ft. $202
2017-07-01 Single Family Ranch 831 Savage Road Charleston, SC 29414 $185,000 987 sq. ft. 9,148 sq. ft. $187
2017-07-01 Single Family Condominium 33 Calhoun Street Charleston, SC 29401 $515,000 1,237 sq. ft. $416
2017-07-01 Single Family Charleston Single 3002 Hatchers Run Drive Charleston, SC 29414 $335,000 1,949 sq. ft. 7,405 sq. ft. $172
2017-07-01 Single Family Contemporary; Craftsman 564 Seaward Drive Charleston, SC 29412 $719,000 2,661 sq. ft. 13,504 sq. ft. $270
2017-07-01 Single Family Condominium 145 Pier View Charleston, SC 29492 $425,000 1,314 sq. ft. $323
2017-07-01 Single Family Condominium 125 Pier View Charleston, SC 29492 $336,000 1,167 sq. ft. $288
2017-07-01 Single Family Cottage 1500 Roustabout Way Charleston, SC 29414 $351,990 2,479 sq. ft. 5,227 sq. ft. $142
2017-07-01 Single Family Traditional 2077 Terrabrook Lane Charleston, SC 29412 $465,000 2,700 sq. ft. 9,148 sq. ft. $172
2017-07-01 Single Family Condo Regime; Condominium; Flat 286 Meeting Street Charleston, SC 29401 $590,000 1,528 sq. ft. $386
2017-07-01 Single Family Contemporary 315 Ashley Avenue Charleston, SC 29403 $656,000 1,550 sq. ft. 5,663 sq. ft. $423
2017-07-01 Single Family Townhouse 315 Ashley Avenue Charleston, SC 29403 $878,000 2,286 sq. ft. 5,663 sq. ft. $384
2017-06-30 Single Family Contemporary; Ranch 7 Forde Row Charleston, SC 29412 $415,000 1,952 sq. ft. 11,326 sq. ft. $213
2017-06-30 Single Family Charleston Single; Traditional 66 Alberta Avenue Charleston, SC 29403 $749,000 2,091 sq. ft. 4,792 sq. ft. $358
2017-06-30 Single Family Ranch 15 Rice Charleston, SC 29407 $209,000 1,426 sq. ft. $147
2017-06-30 Single Family Ranch 531 Ivy Circle Charleston, SC 29414 $249,000 1,547 sq. ft. 6,970 sq. ft. $161
2017-06-30 Single Family Traditional 212 Collingwood Avenue Charleston, SC 29407 $525,000 2,189 sq. ft. 9,148 sq. ft. $240
2017-06-30 Single Family Traditional 717 Goodlet Circle Charleston, SC 29412 $549,900 3,306 sq. ft. 7,405 sq. ft. $166
2017-06-30 Single Family Traditional 669 Edmonds Drive Charleston, SC 29412 $399,900 1,960 sq. ft. 14,375 sq. ft. $204
2017-06-30 Single Family Traditional 1417 Tidal Mill Place Charleston, SC 29492 $983,961 3,778 sq. ft. 6,970 sq. ft. $260
2017-06-30 Single Family Traditional 1409 Tidal Mill Place Charleston, SC 29492 $988,915 3,769 sq. ft. 8,276 sq. ft. $262
2017-06-30 Single Family Condo Regime; Condominium 175 Concord Street Charleston, SC 29401 $1,200,000 1,615 sq. ft. $743
2017-06-30 Single Family Traditional 1057 Ashley Gardens Boulevard Charleston, SC 29414 $315,000 1,674 sq. ft. 3,485 sq. ft. $188
2017-06-30 Single Family Townhouse 327 Weeping Willow Way Charleston, SC 29414 $224,700 1,638 sq. ft. 4,792 sq. ft. $137
2017-06-30 Single Family Traditional 607 Majestic Oak Drive Charleston, SC 29412 $410,000 2,636 sq. ft. 9,148 sq. ft. $156
2017-06-29 Single Family Traditional 637 Fair Spring Drive Charleston, SC 29414 $275,000 1,756 sq. ft. 4,792 sq. ft. $157
2017-06-29 Single Family Traditional 4 Shuttle Court Charleston, SC 29407 $295,000 1,780 sq. ft. 6,970 sq. ft. $166
2017-06-29 Single Family Charleston Single 3 Charlotte Street Charleston, SC 29403 $650,000 1,712 sq. ft. 2,178 sq. ft. $380
2017-06-29 Single Family Traditional 2884 Moss Oak Lane Charleston, SC 29414 $205,000 1,325 sq. ft. 6,534 sq. ft. $155
2017-06-29 Single Family Townhouse 1219 Apex Lane Charleston, SC 29412 $210,000 1,086 sq. ft. 3,485 sq. ft. $193
2017-06-29 Single Family Townhouse 829 Bibury Court Charleston, SC 29414 $239,900 1,641 sq. ft. 4,356 sq. ft. $146
2017-06-29 Single Family Cottage 31 Avondale Avenue Charleston, SC 29407 $387,000 1,287 sq. ft. 15,246 sq. ft. $301
2017-06-29 Single Family Traditional 1526 Harborsun Drive Charleston, SC 29412 $285,000 1,485 sq. ft. 6,970 sq. ft. $192
2017-06-29 Single Family Traditional 1211 Valley Forge Drive Charleston, SC 29412 $344,900 1,615 sq. ft. 6,098 sq. ft. $214
2017-06-29 Single Family Cottage 2 Ashdale Drive Charleston, SC 29407 $334,900 1,086 sq. ft. 6,098 sq. ft. $308
2017-06-29 Single Family Ranch 756 Fort Johnson Road Charleston, SC 29412 $369,900 2,173 sq. ft. 16,988 sq. ft. $170
2017-06-29 Single Family Cottage 1446 Seabago Drive Charleston, SC 29414 $324,990 2,175 sq. ft. 6,098 sq. ft. $149
2017-06-29 Single Family Traditional 2605 Josiah Street Charleston, SC 29492 $1,198,000 4,032 sq. ft. 17,424 sq. ft. $297
2017-06-29 Single Family Traditional 2819 Conservancy Lane Charleston, SC 29414 $304,490 1,913 sq. ft. 8,276 sq. ft. $159
2017-06-29 Single Family Traditional 2194 Fragrant Lane Charleston, SC 29414 $275,000 2,228 sq. ft. 11,326 sq. ft. $123
2017-06-29 Single Family Traditional 2817 Conservancy Lane Charleston, SC 29414 $290,940 1,650 sq. ft. 8,276 sq. ft. $176
2017-06-29 Single Family Condominium; Flat 498 Albemarle Road Charleston, SC 29407 $250,000 860 sq. ft. $291
2017-06-29 Single Family Cottage 7 Fieldfare Way Charleston, SC 29414 $200,000 1,300 sq. ft. 8,712 sq. ft. $154
2017-06-29 Single Family Patio; Traditional 479 Blue Dragonfly Drive Charleston, SC 29414 $315,000 2,168 sq. ft. 8,276 sq. ft. $145
2017-06-29 Single Family Contemporary; Traditional 546 Mcenery Alley Charleston, SC 29412 $424,000 2,168 sq. ft. 7,405 sq. ft. $196
2017-06-29 Single Family Charleston Single; Traditional 1811 Shelter Cove Charleston, SC 29414 $374,900 2,331 sq. ft. 5,663 sq. ft. $161
2017-06-29 Single Family Traditional 504 Stone Creek Drive Charleston, SC 29414 $325,000 2,373 sq. ft. 8,276 sq. ft. $137
2017-06-28 Single Family Ranch; Traditional 1920 Beechwood Road Charleston, SC 29414 $245,000 2,393 sq. ft. 12,197 sq. ft. $102
2017-06-28 Single Family Ranch 1157 Oxbow Drive Charleston, SC 29412 $249,000 1,008 sq. ft. 15,246 sq. ft. $247
2017-06-28 Single Family Traditional 420 Sycamore Shade Street Charleston, SC 29414 $375,000 2,797 sq. ft. 8,712 sq. ft. $134
2017-06-28 Single Family Colonial 41 Farmfield Ave Charleston, SC 29407 $467,000 1,972 sq. ft. $237
2017-06-28 Single Family Ranch 37 Heathwood Drive Charleston, SC 29407 $329,900 1,875 sq. ft. 11,326 sq. ft. $176
2017-06-28 Single Family Ranch 3126 Winners Circle Charleston, SC 29414 $649,900 2,960 sq. ft. 73,616 sq. ft. $220
2017-06-28 Single Family Traditional 1702 Providence Street Charleston, SC 29492 $845,000 4,087 sq. ft. 8,276 sq. ft. $207
2017-06-28 Single Family Ranch; Traditional 1240 Wando Shores Drive Charleston, SC 29492 $269,990 1,459 sq. ft. 10,454 sq. ft. $185
2017-06-28 Single Family Traditional 1618 Means Street Charleston, SC 29412 $669,000 2,872 sq. ft. 14,810 sq. ft. $233
2017-06-27 Single Family Traditional 1479 Wando Landing Street Charleston, SC 29492 $699,990 2,986 sq. ft. 6,098 sq. ft. $234
2017-06-27 Single Family Charleston Single 4228 William E Murray Boulevard Charleston, SC 29414 $389,900 2,816 sq. ft. 6,098 sq. ft. $138
2017-06-27 Single Family Condominium 330 Concord Street Charleston, SC 29401 $630,000 1,237 sq. ft. $509
2017-06-27 Single Family Traditional 64 Darlington Avenue Charleston, SC 29403 $660,000 2,304 sq. ft. 5,663 sq. ft. $286
2017-06-27 Single Family Condo Regime 14 Lockwood Drive Charleston, SC 29401 $415,000 1,034 sq. ft. $401
2017-06-27 Single Family Townhouse 2210 Folly Road Charleston, SC 29412 $679,900 2,264 sq. ft. 3,049 sq. ft. $300
2017-06-27 Single Family Duplex 58 Dereef Court Charleston, SC 29403 $579,000 1,390 sq. ft. 1,307 sq. ft. $417
2017-06-27 Single Family Traditional 40 Dereef Court Charleston, SC 29403 $515,000 1,206 sq. ft. 871 sq. ft. $427
2017-06-27 Single Family Traditional 173 Evening Shade Dr Charleston, SC 29414 $280,000 1,709 sq. ft. 11,326 sq. ft. $164
2017-06-27 Single Family Cottage 928 Etiwan Park Street Charleston, SC 29492 $540,000 1,920 sq. ft. $281
2017-06-27 Single Family Cottage 1 Harlem Court Charleston, SC 29403 $325,000 568 sq. ft. 1,307 sq. ft. $572
2017-06-27 Single Family Condominium 8 Elliott Street Charleston, SC 29401 $795,000 1,224 sq. ft. $650
2017-06-26 Single Family Patio; Ranch 637 Yale Drive Charleston, SC 29412 $345,000 1,600 sq. ft. 11,761 sq. ft. $216
2017-06-26 Single Family Ranch 754 Bermuda Street Charleston, SC 29412 $699,000 2,091 sq. ft. 50,965 sq. ft. $334
2017-06-26 Single Family Condo Regime; Condominium 55 Ashley Avenue Charleston, SC 29401 $315,000 1,007 sq. ft. $313
2017-06-26 Single Family Cottage; Traditional; Cape Cod 94 Gordon Street Charleston, SC 29403 $450,000 1,943 sq. ft. 11,761 sq. ft. $232
2017-06-26 Single Family Craftsman 425 Riverland Drive Charleston, SC 29412 $300,000 2,424 sq. ft. 12,197 sq. ft. $124
2017-06-26 Single Family Traditional 62 Smith Street Charleston, SC 29401 $1,750,000 3,617 sq. ft. 4,792 sq. ft. $484
2017-06-26 Single Family Charleston Single 21 Rose Lane Charleston, SC 29403 $399,000 795 sq. ft. 871 sq. ft. $502
2017-06-26 Single Family Cottage 210 Ainsdale Drive Charleston, SC 29414 $353,900 2,344 sq. ft. 10,019 sq. ft. $151
2017-06-26 Single Family Ranch 1324 Linden Circle Charleston, SC 29407 $385,000 1,800 sq. ft. 6,970 sq. ft. $214
2017-06-25 Single Family Ranch 1458 Arrow Wind Terrace Charleston, SC 29414 $299,000 2,185 sq. ft. 13,939 sq. ft. $137
2017-06-25 Single Family Condominium 45 East Bay Street Charleston, SC 29401 $1,900,000 1,802 sq. ft. $1,054
2017-06-25 Single Family Townhouse 1054 Bennington Drive Charleston, SC 29492 $228,000 1,597 sq. ft. 2,178 sq. ft. $143
2017-06-24 Single Family Charleston Single 1466 Eutaw Battalion Drive Charleston, SC 29412 $464,900 1,690 sq. ft. 8,712 sq. ft. $275
2017-06-24 Single Family Ranch 14 Sallys Alley Charleston, SC 29407 $449,950 2,124 sq. ft. 14,375 sq. ft. $212
2017-06-24 Single Family Charleston Single 1462 Eutaw Battalion Drive Charleston, SC 29412 $459,900 1,690 sq. ft. 6,970 sq. ft. $272
2017-06-24 Single Family Traditional 1806 Hockley Boulevard Charleston, SC 29414 $264,900 1,910 sq. ft. 7,841 sq. ft. $139
2017-06-24 Single Family Craftsman 209 Hickory Street Charleston, SC 29407 $459,000 1,500 sq. ft. 6,098 sq. ft. $306
2017-06-24 Single Family Townhouse 1 Weims Court Charleston, SC 29401 $949,000 2,436 sq. ft. 3,920 sq. ft. $390
2017-06-23 Single Family Traditional 8765 Herons Walk Walk Charleston, SC 29420 $450,000 2,910 sq. ft. 21,344 sq. ft. $155
2017-06-23 Single Family Traditional 68 Brisbane Drive Charleston, SC 29407 $399,000 2,539 sq. ft. 12,197 sq. ft. $157
2017-06-23 Single Family Townhouse 973 Harbor Oaks Drive Charleston, SC 29412 $260,000 1,512 sq. ft. 3,485 sq. ft. $172
2017-06-23 Single Family Charleston Single 50 South Street Charleston, SC 29403 $569,900 1,500 sq. ft. 2,178 sq. ft. $380
2017-06-23 Single Family Traditional 3017 Macbeth Creek Drive Charleston, SC 29414 $489,000 3,400 sq. ft. 6,970 sq. ft. $144
2017-06-23 Single Family Traditional 2156 Pentland Drive Charleston, SC 29412 $399,000 2,274 sq. ft. 4,792 sq. ft. $175
2017-06-23 Single Family Traditional 1497 Nautical Chart Drive Charleston, SC 29414 $394,320 2,784 sq. ft. 7,405 sq. ft. $142
2017-06-23 Single Family Charleston Single; Traditional 131 Island Park Drive Charleston, SC 29492 $1,290,000 3,767 sq. ft. 8,276 sq. ft. $342
2017-06-23 Single Family Ranch 1158 Bellwood Road Charleston, SC 29412 $220,000 926 sq. ft. 14,810 sq. ft. $238
2017-06-23 Single Family Ranch 1042 Honeysuckle Lane Charleston, SC 29412 $300,000 1,524 sq. ft. 12,632 sq. ft. $197
2017-06-23 Single Family Condominium 1025 Riverland Woods Place Charleston, SC 29412 $240,000 1,290 sq. ft. $186
2017-06-23 Single Family Ranch; Traditional 1447 Secessionville Road Charleston, SC 29412 $240,000 1,836 sq. ft. 7,405 sq. ft. $131
2017-06-23 Single Family Ranch; Traditional 1789 Mayflower Drive Charleston, SC 29412 $319,900 1,665 sq. ft. 20,038 sq. ft. $192
2017-06-23 Single Family Townhouse 1175 Euclid Drive Charleston, SC 29492 $250,000 1,703 sq. ft. 3,485 sq. ft. $147
2017-06-23 Single Family Traditional 513 Sweetbay Road Charleston, SC 29412 $447,500 2,177 sq. ft. 10,454 sq. ft. $206
2017-06-23 Single Family Charleston Single 1941 Clay Lane Charleston, SC 29414 $418,800 2,196 sq. ft. 6,098 sq. ft. $191
2017-06-23 Single Family Ranch 1837 Ogden Road Charleston, SC 29407 $190,000 1,176 sq. ft. 8,276 sq. ft. $162
2017-06-23 Single Family Ranch 1987 Vestry Drive Charleston, SC 29414 $225,000 1,254 sq. ft. 11,326 sq. ft. $179
2017-06-23 Single Family Townhouse 113 Larissa Drive Charleston, SC 29414 $239,000 2,037 sq. ft. 3,485 sq. ft. $117
2017-06-23 Single Family Traditional 231 Delahow Street Charleston, SC 29492 $1,295,000 4,007 sq. ft. 12,197 sq. ft. $323
2017-06-23 Single Family Traditional 448 Blue Dragonfly Drive Charleston, SC 29414 $374,900 2,697 sq. ft. 8,712 sq. ft. $139
2017-06-23 Single Family Traditional 307 Heron Watch Court Charleston, SC 29414 $299,000 2,200 sq. ft. 13,939 sq. ft. $136
2017-06-23 Single Family Traditional 107 Wando Reach Drive Charleston, SC 29492 $549,900 3,021 sq. ft. 8,276 sq. ft. $182
2017-06-23 Single Family Traditional 1420 Bimini Drive Charleston, SC 29414 $325,000 2,185 sq. ft. 7,405 sq. ft. $149
2017-06-22 Single Family Traditional 41 Jawol Drive Charleston, SC 29414 $287,500 1,865 sq. ft. 5,227 sq. ft. $154
2017-06-22 Single Family Condominium 700 Daniel Ellis Drive Charleston, SC 29412 $127,000 691 sq. ft. $184
2017-06-22 Single Family Cottage; Craftsman 156 Darlington Avenue Charleston, SC 29403 $465,000 1,167 sq. ft. 4,356 sq. ft. $398
2017-06-22 Single Family Traditional 100 Mellish Court Charleston, SC 29492 $475,000 1,968 sq. ft. 15,246 sq. ft. $241
2017-06-22 Single Family Ranch 2911 Honeywell Court Charleston, SC 29414 $279,900 1,830 sq. ft. 11,326 sq. ft. $153
2017-06-22 Single Family Traditional 2131 Wappoo Drive Charleston, SC 29412 $425,000 1,870 sq. ft. 6,534 sq. ft. $227
2017-06-22 Single Family Traditional 1914 Mahone Court Charleston, SC 29492 $612,000 2,385 sq. ft. 10,019 sq. ft. $257
2017-06-22 Single Family Charleston Single 2037 Maybelles Lane Charleston, SC 29414 $305,000 2,141 sq. ft. 4,356 sq. ft. $142
2017-06-22 Single Family Traditional 34 Colleton Drive Charleston, SC 29407 $340,000 1,048 sq. ft. 6,098 sq. ft. $324
2017-06-22 Single Family Condo Regime; Condominium 2111 Tides End Road Charleston, SC 29412 $535,000 2,206 sq. ft. $243
2017-06-22 Single Family Ranch 1754 Gilbert Street Charleston, SC 29412 $299,900 1,252 sq. ft. 14,375 sq. ft. $240
2017-06-22 Single Family Ranch 1851 Sallie Street Charleston, SC 29412 $119,900 1,529 sq. ft. 10,454 sq. ft. $78
2017-06-22 Single Family Ranch; Traditional 23 Hunters Forest Drive Charleston, SC 29414 $314,900 2,194 sq. ft. 21,780 sq. ft. $144
2017-06-22 Single Family Traditional 1335 Salt Marsh Cove Charleston, SC 29412 $549,500 2,589 sq. ft. 11,326 sq. ft. $212
2017-06-22 Single Family Condominium 175 Concord Street Charleston, SC 29401 $1,395,000 1,615 sq. ft. $864
2017-06-21 Single Family Ranch 29 Wyecreek Avenue Charleston, SC 29412 $325,000 1,258 sq. ft. 10,019 sq. ft. $258
2017-06-21 Single Family Traditional 1499 Harborsun Drive Charleston, SC 29412 $335,000 2,150 sq. ft. 9,148 sq. ft. $156
2017-06-21 Single Family Charleston Single; Patio 1520 Gator Track Charleston, SC 29414 $409,000 2,800 sq. ft. 13,068 sq. ft. $146
2017-06-21 Single Family Traditional 194 Beresford Creek Street Charleston, SC 29492 $2,200,000 4,823 sq. ft. $456
2017-06-21 Single Family Traditional 725 Bounty Square Drive Charleston, SC 29492 $1,395,000 5,426 sq. ft. 47,045 sq. ft. $257
2017-06-21 Single Family Townhouse 4124 Perrine Street Charleston, SC 29414 $192,500 1,414 sq. ft. 2,178 sq. ft. $136
2017-06-21 Single Family Ranch; Traditional 313 Howle Avenue Charleston, SC 29412 $294,000 1,774 sq. ft. 16,553 sq. ft. $166
2017-06-21 Single Family Traditional 233 Nelliefield Creek Drive Charleston, SC 29492 $365,000 2,368 sq. ft. 10,890 sq. ft. $154
2017-06-21 Single Family Charleston Single; Traditional 1194 Quick Rabbit Loop Charleston, SC 29414 $449,000 3,676 sq. ft. 7,841 sq. ft. $122
2017-06-21 Single Family Charleston Single 85 Rutledge Avenue Charleston, SC 29401 $1,295,000 3,020 sq. ft. 8,276 sq. ft. $429
2017-06-21 Single Family Charleston Single 33 Hanover Street Charleston, SC 29403 $275,000 1,492 sq. ft. 2,614 sq. ft. $184
2017-06-21 Single Family Townhouse 2428 Kendall Drive Charleston, SC 29414 $329,900 2,019 sq. ft. 2,614 sq. ft. $163
2017-06-21 Single Family Traditional 537 Nelliefield Trail Charleston, SC 29492 $334,900 1,691 sq. ft. 7,405 sq. ft. $198
2017-06-21 Single Family Condominium 1735 Boone Hall Drive Charleston, SC 29407 $115,000 1,008 sq. ft. 871 sq. ft. $114
2017-06-20 Single Family Traditional 29 Jawol Drive Charleston, SC 29414 $245,000 1,758 sq. ft. 5,663 sq. ft. $139
2017-06-20 Single Family Traditional 3344 Forest Glen Drive Charleston, SC 29414 $250,000 2,004 sq. ft. 11,326 sq. ft. $125
2017-06-20 Single Family Townhouse 32 Poet's Corner Charleston, SC 29412 $260,000 1,566 sq. ft. 1,307 sq. ft. $166
2017-06-20 Single Family Traditional 393 Sumter Street Charleston, SC 29403 $600,000 2,352 sq. ft. 3,485 sq. ft. $255
2017-06-20 Single Family Condominium 45 Sycamore Avenue Charleston, SC 29407 $215,000 1,221 sq. ft. $176
2017-06-20 Single Family Cottage; Ranch 2064 Medway Road Charleston, SC 29412 $310,000 846 sq. ft. 6,534 sq. ft. $366
2017-06-20 Single Family Charleston Single 1440 Eutaw Battalion Drive Charleston, SC 29412 $481,900 1,890 sq. ft. 4,356 sq. ft. $255
2017-06-20 Single Family Townhouse 3313 Conservancy Lane Charleston, SC 29414 $225,000 1,645 sq. ft. $137
2017-06-20 Single Family Townhouse 4129 Veritas Street Charleston, SC 29414 $210,000 1,502 sq. ft. 2,178 sq. ft. $140
2017-06-20 Single Family Ranch 846 Melrose Drive Charleston, SC 29414 $285,000 1,670 sq. ft. 15,682 sq. ft. $171
2017-06-20 Single Family Condominium 2362 Parsonage Road Charleston, SC 29414 $133,900 960 sq. ft. $139
2017-06-20 Single Family Traditional 1908 Sunnyvale Ave Charleston, SC 29414 $195,000 1,080 sq. ft. 8,712 sq. ft. $181
2017-06-20 Single Family Traditional 29 Timmerman Drive Charleston, SC 29407 $449,000 1,697 sq. ft. $265
2017-06-19 Single Family Traditional 2008 Wadsbury Lane Charleston, SC 29414 $245,000 1,504 sq. ft. 8,276 sq. ft. $163
2017-06-19 Single Family Traditional 5403 Greggs Landing Drive Charleston, SC 29420 $239,000 2,035 sq. ft. 10,454 sq. ft. $117
2017-06-19 Single Family Colonial; Traditional 406 Hawks Cay Court Charleston, SC 29414 $275,000 1,675 sq. ft. 10,890 sq. ft. $164
2017-06-19 Single Family Ranch 1724 Mchenry Avenue Charleston, SC 29412 $299,000 1,839 sq. ft. 14,810 sq. ft. $163
2017-06-19 Single Family Condominium; Flat 1402 Camp Road Charleston, SC 29412 $115,000 959 sq. ft. $120
2017-06-19 Single Family Traditional 1976 Beechnut Street Charleston, SC 29414 $234,900 1,592 sq. ft. 8,712 sq. ft. $148
2017-06-19 Single Family Townhouse 1002 Summerhaven Place Charleston, SC 29492 $213,000 1,708 sq. ft. 871 sq. ft. $125
2017-06-19 Single Family Traditional 20 Darcy Court Charleston, SC 29414 $185,000 1,420 sq. ft. 6,098 sq. ft. $130
2017-06-19 Single Family Traditional 37 Oatly Circle Charleston, SC 29414 $279,600 2,241 sq. ft. 18,295 sq. ft. $125
2017-06-19 Single Family Traditional 1877 Cornsilk Drive Charleston, SC 29414 $310,000 1,910 sq. ft. 6,534 sq. ft. $162
2017-06-19 Single Family Condominium 106 Pickering Lane Charleston, SC 29414 $179,900 1,300 sq. ft. $138
2017-06-19 Single Family Condominium 2740 Jobee Dr Charleston, SC 29414 $105,000 908 sq. ft. $116
2017-06-19 Single Family Ranch 1950 Trinity Drive Charleston, SC 29407 $465,000 2,269 sq. ft. 16,117 sq. ft. $205
2017-06-19 Single Family Ranch; Traditional 418 Sycamore Shade Street Charleston, SC 29414 $299,000 2,116 sq. ft. 8,712 sq. ft. $141
2017-06-19 Single Family Condo Regime; Condominium 67 Legare Street Charleston, SC 29401 $550,000 956 sq. ft. $575
2017-06-19 Single Family Condominium; Flat 21 Rivers Point Charleston, SC 29412 $100,000 750 sq. ft. $133
2017-06-18 Single Family Ranch 707 Windward Road Charleston, SC 29412 $474,000 2,040 sq. ft. 14,810 sq. ft. $232
2017-06-18 Single Family Charleston Single 1251 Adela Hills Drive Charleston, SC 29412 $442,900 1,990 sq. ft. 6,098 sq. ft. $223
2017-06-18 Single Family Condominium 200 River Landing Drive Charleston, SC 29492 $329,000 1,248 sq. ft. $264
2017-06-17 Single Family Traditional 121 Sea Cotton Circle Charleston, SC 29412 $338,500 1,720 sq. ft. 9,148 sq. ft. $197
2017-06-17 Single Family Ranch 1125 Armstrong Avenue Charleston, SC 29407 $120,000 640 sq. ft. $188
2017-06-17 Single Family Townhouse 243 Larissa Drive Charleston, SC 29414 $200,000 1,502 sq. ft. 2,178 sq. ft. $133
2017-06-17 Single Family Ranch 1715 Jessamine Road Charleston, SC 29407 $260,000 1,250 sq. ft. 9,583 sq. ft. $208
2017-06-17 Single Family Traditional 67 Dalton Street Charleston, SC 29492 $1,399,000 4,884 sq. ft. 18,731 sq. ft. $286
2017-06-17 Single Family Condominium 700 Daniel Ellis Drive Charleston, SC 29412 $180,000 1,170 sq. ft. $154
2017-06-17 Single Family Condominium 130 River Landing Drive Charleston, SC 29492 $249,900 1,218 sq. ft. $205
2017-06-16 Single Family Ranch 1618 Wigeon Lane Charleston, SC 29412 $220,000 1,152 sq. ft. 6,534 sq. ft. $191
2017-06-16 Single Family Contemporary 506 Rainsong Drive Charleston, SC 29412 $574,000 3,008 sq. ft. 12,632 sq. ft. $191
2017-06-16 Single Family Ranch 20 Wespanee Drive Charleston, SC 29407 $315,000 1,943 sq. ft. 15,246 sq. ft. $162
2017-06-16 Single Family Condo Regime; Condominium; Townhouse; Villa 38 Wappoo Creek Place Charleston, SC 29412 $447,500 2,224 sq. ft. $201
2017-06-16 Single Family Traditional 45 Lyttleton Street Charleston, SC 29407 $499,900 1,809 sq. ft. 6,970 sq. ft. $276
2017-06-16 Single Family Carriage/Kitchen House 9 Meeting Street Charleston, SC 29401 $1,395,000 1,780 sq. ft. $784
2017-06-16 Single Family Ranch 1983 Fruitwood Avenue Charleston, SC 29414 $285,500 1,765 sq. ft. 30,056 sq. ft. $162
2017-06-16 Single Family Traditional 2124 Rookery Lane Charleston, SC 29414 $799,000 3,908 sq. ft. 21,780 sq. ft. $204
2017-06-16 Single Family Ranch 805 Paran Oaks Drive Charleston, SC 29414 $304,900 2,202 sq. ft. 11,326 sq. ft. $138
2017-06-16 Single Family Charleston Single; Contemporary; Traditional 805 Hunt Club Run Charleston, SC 29414 $650,000 3,404 sq. ft. 31,799 sq. ft. $191
2017-06-16 Single Family Condominium; Flat 1755 Central Park Road Charleston, SC 29412 $144,900 709 sq. ft. $204
2017-06-16 Single Family Ranch 1846 Alice Drive Charleston, SC 29407 $470,000 1,808 sq. ft. 8,276 sq. ft. $260
2017-06-16 Single Family Traditional 1109 Leeward Avenue Charleston, SC 29412 $374,000 2,032 sq. ft. 17,860 sq. ft. $184
2017-06-16 Single Family Traditional 837 Stiles Drive Charleston, SC 29412 $389,900 2,181 sq. ft. 12,197 sq. ft. $179
2017-06-16 Single Family Contemporary; Traditional 2330 Assembly Drive Charleston, SC 29414 $335,000 2,591 sq. ft. 12,632 sq. ft. $129
2017-06-15 Single Family Townhouse 74 Legare Street Charleston, SC 29401 $815,000 2,055 sq. ft. 1,742 sq. ft. $397
2017-06-15 Single Family Traditional 406 Stefan Drive Charleston, SC 29412 $335,000 1,760 sq. ft. 5,227 sq. ft. $190
2017-06-15 Single Family Craftsman 33 Cypress Street Charleston, SC 29403 $659,000 1,900 sq. ft. 3,920 sq. ft. $347
2017-06-15 Single Family Cottage 8 Dingle Charleston, SC 29403 $475,000 1,164 sq. ft. 5,227 sq. ft. $408
2017-06-15 Single Family Condo Regime; Condominium 144 Fairbanks Oak Alley Charleston, SC 29492 $769,750 2,644 sq. ft. $291
2017-06-15 Single Family Charleston Single 1476 Gator Trak Charleston, SC 29414 $370,000 2,800 sq. ft. 13,939 sq. ft. $132
2017-06-15 Single Family Condo Regime 2244 Ashley Crossing Drive Charleston, SC 29414 $158,500 889 sq. ft. $178
2017-06-15 Single Family Condo Regime; Condominium 4017 Old Bridgeview Lane Charleston, SC 29403 $700,000 1,725 sq. ft. 43,560 sq. ft. $406
2017-06-15 Single Family Traditional 2534 Liverpool Drive Charleston, SC 29414 $263,000 1,536 sq. ft. 12,632 sq. ft. $171
2017-06-15 Single Family Condo Regime 940 Estates Boulevard Charleston, SC 29414 $170,000 1,562 sq. ft. $109
2017-06-15 Single Family Ranch 951 Nabors Drive Charleston, SC 29412 $265,000 1,196 sq. ft. 11,326 sq. ft. $222
2017-06-15 Single Family Ranch 827 Targave Road Charleston, SC 29412 $385,000 2,328 sq. ft. 19,166 sq. ft. $165
2017-06-15 Single Family Traditional 509 Rainsong Drive Charleston, SC 29412 $565,000 3,892 sq. ft. 12,632 sq. ft. $145
2017-06-15 Single Family Townhouse 1003 Washitonia Way Charleston, SC 29492 $172,000 1,353 sq. ft. 871 sq. ft. $127
2017-06-15 Single Family Condo Regime 619 Windermere Boulevard Charleston, SC 29407 $329,000 1,576 sq. ft. $209
2017-06-15 Single Family Traditional 804 Bunkhouse Drive Charleston, SC 29414 $297,500 2,310 sq. ft. 8,712 sq. ft. $129
2017-06-15 Single Family Ranch; Traditional 1524 Ashley Garden Boulevard Charleston, SC 29414 $239,900 1,525 sq. ft. 9,148 sq. ft. $157
2017-06-15 Single Family Traditional 3006 Scuba Drive Charleston, SC 29414 $319,500 2,142 sq. ft. 6,970 sq. ft. $149
2017-06-14 Single Family Colonial; Traditional 132 Bounty Street Charleston, SC 29492 $625,000 2,959 sq. ft. 14,375 sq. ft. $211
2017-06-14 Single Family Traditional 132 Berkshire Drive Charleston, SC 29492 $489,000 2,598 sq. ft. 15,682 sq. ft. $188
2017-06-14 Single Family Charleston Single 59 Legare Street Charleston, SC 29401 $1,295,000 1,800 sq. ft. $719
2017-06-14 Single Family Condominium 130 River Landing Drive Charleston, SC 29492 $239,950 1,291 sq. ft. $186
2017-06-14 Single Family Condo Regime; Condominium 2032 Egret Crest Lane Charleston, SC 29414 $150,000 1,272 sq. ft. $118
2017-06-14 Single Family Ranch 2133 Parsonage Lane Charleston, SC 29414 $180,000 1,220 sq. ft. 10,019 sq. ft. $148
2017-06-14 Single Family Townhouse 216 Grove Street Charleston, SC 29403 $405,000 1,188 sq. ft. 3,049 sq. ft. $341
2017-06-14 Single Family Charleston Single 124 Congress Street Charleston, SC 29403 $505,000 1,500 sq. ft. 1,742 sq. ft. $337
2017-06-14 Single Family Condo Regime; Condominium 2426 Egret Crest Lane Charleston, SC 29414 $165,000 1,430 sq. ft. $115
2017-06-14 Single Family Condo Regime; Condominium; Flat 45 Sycamore Charleston, SC 29407 $168,000 884 sq. ft. $190
2017-06-14 Single Family Cottage 0 Anita Drive Charleston, SC 29407 $254,000 1,000 sq. ft. 8,712 sq. ft. $254
2017-06-14 Single Family Condo Regime; Condominium 45 Sycamore Avenue Charleston, SC 29407 $169,000 893 sq. ft. $189
2017-06-14 Single Family Traditional 2254 Arthur Gaillard Lane Charleston, SC 29414 $449,900 2,780 sq. ft. 9,148 sq. ft. $162
2017-06-13 Single Family Traditional 249 Ashley Avenue Charleston, SC 29403 $740,000 1,932 sq. ft. 3,485 sq. ft. $383
2017-06-13 Single Family Charleston Single 7 Hampstead Square Charleston, SC 29403 $615,000 1,740 sq. ft. 1,307 sq. ft. $353
2017-06-13 Single Family Traditional 1531 Wando Landing Street Charleston, SC 29492 $974,000 3,378 sq. ft. 11,761 sq. ft. $288
2017-06-13 Single Family Traditional 706 Netherton Court Charleston, SC 29492 $659,000 2,945 sq. ft. $224
2017-06-13 Single Family Townhouse 100 East Bay Street Charleston, SC 29401 $1,695,000 2,095 sq. ft. 1,307 sq. ft. $809
2017-06-13 Single Family Ranch 1331 Sherwood Drive Charleston, SC 29407 $320,000 2,135 sq. ft. 12,197 sq. ft. $150
2017-06-13 Single Family Traditional 1132 Oak Overhang Street Charleston, SC 29492 $859,000 3,505 sq. ft. 8,712 sq. ft. $245
2017-06-13 Single Family Condominium; Duplex 108 Queen Street Charleston, SC 29401 $899,000 2,016 sq. ft. $446
2017-06-13 Single Family Traditional 807 Tennent Street Charleston, SC 29412 $1,125,000 4,000 sq. ft. 19,166 sq. ft. $281
2017-06-13 Single Family Condominium; Duplex 213 Gordon Street Charleston, SC 29403 $365,000 1,102 sq. ft. $331
2017-06-12 Single Family Ranch 4005 Wallingford Court Charleston, SC 29414 $248,000 1,461 sq. ft. 8,712 sq. ft. $170
2017-06-12 Single Family Traditional 168 Royal Assembly Drive Charleston, SC 29492 $1,300,000 6,491 sq. ft. 43,560 sq. ft. $200
2017-06-12 Single Family Charleston Single 74 Anson Street Charleston, SC 29401 $1,570,000 2,239 sq. ft. $701